Airfield :
LOGIN :

Register | Disclaimer

   EN    FR    IT 

 










Legend :    VFR   Marginal VFR   IFR   Intensive IFR   Very Intensive IFR
Visi :
Ceiling :
>= 8 km
>= 3000ft
5 to 8 km
1000 to 3000 ft
1500m to 5 km
500 to 1000 ft
800 to 1500m
200 to 500 ft
< 800m
< 200 ft
Symbols :   Thunderstorms  Fog  Heavy snow  Heavy precipitations  Wind > 20 kt
SIGMETs :     Misc.  Thunderstorms  Icing  Turbulence  Mountain Waves  Volcanic Ashes






- Airport Elevation : 436 ft
- IATA code : ANG


LFBU - Angoulême Brie Champniers

CURRENT METAR :
  • 250100Z AUTO 34006KT 9999 FEW024 11/10 Q1015

EXPIRED METARs :
  • 250030Z AUTO 34005KT 9999 BKN020 11/11 Q1015
  • 250000Z AUTO 33005KT 9999 BKN022 12/11 Q1015
  • 242330Z AUTO 33005KT 9999 SCT022 BKN027 OVC230 12/11 Q1015
  • 242300Z AUTO 33004KT 9999 FEW016 BKN026 OVC240 12/11 Q1015
  • 242230Z AUTO 00000KT 9999 BKN023 OVC220 12/11 Q1015

TAF AMD TAF LFBU
Valid from the 24 at 19:00 until the 25 at 18:00 UTC


241907Z 2419/2518 33005KT 9999 BKN030
TEMPO 2419/2421 4000 SHRA BKN030TCU
PROB40
TEMPO 2419/2421 2000 TSRA BKN020CB
TEMPO 2500/2504 1500 MIFG
TEMPO 2504/2509 2000 BR OVC003
TEMPO 2510/2517 SHRA BKN020TCU
PROB40
TEMPO 2510/2512 BKN012



MET'MAP, your aeronautical weather chart ! - Copyright ORBIFLY December 2007 - Disclaimer

ORBIFLY MET'MAP TEAM :

Programming & Development : Alexandra Zaïnal
Original concept : Baudouin d'Aumeries
Technical & hardware support : Manuel Goepfert
Assistance : Marc-Olivier Méhu




SOURCES & CREDITS :

   NOAA